createdAt,value
2017-11-14T17:04:08.867Z,102110.44
2017-11-14T17:06:10.533Z,102116.73
2017-11-14T17:08:12.165Z,102118.60
2017-11-14T17:10:13.826Z,102118.11
2017-11-14T17:12:15.046Z,102127.69
2017-11-14T17:14:16.774Z,102124.69
2017-11-14T17:16:18.545Z,102128.64
2017-11-14T17:18:20.247Z,102126.02
2017-11-14T17:20:21.998Z,102125.59
2017-11-14T17:22:23.547Z,102131.52
2017-11-14T17:24:25.093Z,102125.94
2017-11-14T17:26:26.757Z,102125.97
2017-11-14T17:28:28.319Z,102130.17
2017-11-14T17:30:30.771Z,102130.61
2017-11-14T17:32:32.523Z,102131.55
2017-11-14T17:34:34.289Z,102130.31
2017-11-14T17:36:36.567Z,102137.66
2017-11-14T17:38:38.318Z,102138.41
2017-11-14T17:40:39.970Z,102131.98
2017-11-14T17:42:41.543Z,102133.36
2017-11-14T17:44:43.122Z,102128.55
2017-11-14T17:46:44.726Z,102131.98
2017-11-14T17:48:46.429Z,102140.00
2017-11-14T17:50:47.958Z,102138.71
2017-11-14T17:52:49.684Z,102146.39
2017-11-14T17:54:51.354Z,102147.25
2017-11-14T17:56:52.828Z,102143.39
2017-11-14T17:58:54.460Z,102145.53
2017-11-14T18:00:56.015Z,102140.38
2017-11-14T18:02:57.586Z,102149.82
2017-11-14T18:04:59.299Z,102148.96
2017-11-14T18:07:00.971Z,102148.11
2017-11-14T18:09:03.432Z,102146.39
2017-11-14T18:11:05.206Z,102149.48
2017-11-14T18:13:07.399Z,102163.20
2017-11-14T18:15:09.033Z,102150.30
2017-11-14T18:17:10.778Z,102161.02
2017-11-14T18:19:12.551Z,102163.13
2017-11-14T18:21:14.189Z,102159.64
2017-11-14T18:23:15.958Z,102159.17
2017-11-14T18:25:17.598Z,102150.59
2017-11-14T18:27:19.246Z,102158.45
2017-11-14T18:29:21.120Z,102153.73
2017-11-14T18:31:22.677Z,102149.91
2017-11-14T18:33:24.237Z,102153.69
2017-11-14T18:35:25.970Z,102160.08
2017-11-14T18:37:27.726Z,102157.06
2017-11-14T18:39:29.506Z,102156.60
2017-11-14T18:41:31.256Z,102164.88
2017-11-14T18:43:32.989Z,102158.45
2017-11-14T18:45:34.770Z,102163.94
2017-11-14T18:47:36.418Z,102160.97
2017-11-14T18:49:38.070Z,102167.27
2017-11-14T18:51:39.345Z,102163.03
2017-11-14T18:53:41.018Z,102166.42
2017-11-14T18:55:42.515Z,102175.77
2017-11-14T18:57:44.251Z,102174.09
2017-11-14T18:59:45.924Z,102177.91
2017-11-14T19:01:48.391Z,102177.06
2017-11-14T19:03:49.959Z,102178.34
2017-11-14T19:05:51.389Z,102186.92
2017-11-14T19:07:52.964Z,102175.86
2017-11-14T19:09:54.624Z,102179.67
2017-11-14T19:11:56.359Z,102180.48
2017-11-14T19:13:58.012Z,102179.63
2017-11-14T19:15:59.697Z,102181.78
2017-11-14T19:18:01.218Z,102180.54
2017-11-14T19:20:02.509Z,102181.82
2017-11-14T19:22:04.044Z,102179.12
2017-11-14T19:24:05.664Z,102183.88
2017-11-14T19:26:07.169Z,102182.67
2017-11-14T19:28:08.784Z,102181.39
2017-11-14T19:30:10.235Z,102192.16
2017-11-14T19:32:11.772Z,102191.17
2017-11-14T19:34:13.349Z,102186.11
2017-11-14T19:36:14.907Z,102189.11
2017-11-14T19:38:16.556Z,102189.93
2017-11-14T19:40:18.126Z,102198.42
2017-11-14T19:42:19.544Z,102199.63
2017-11-14T19:44:21.306Z,102194.42
2017-11-14T19:46:22.947Z,102195.28
2017-11-14T19:48:24.607Z,102206.06
2017-11-14T19:50:26.264Z,102195.47
2017-11-14T19:52:28.020Z,102198.80
2017-11-14T19:54:29.745Z,102197.42
2017-11-14T19:56:31.138Z,102197.39
2017-11-14T19:58:32.773Z,102201.20
2017-11-14T20:00:34.216Z,102196.05
2017-11-14T20:02:35.754Z,102204.59
2017-11-14T20:04:37.141Z,102203.30
2017-11-14T20:06:38.705Z,102194.34
2017-11-14T20:08:40.321Z,102203.77
2017-11-14T20:10:41.888Z,102212.78
2017-11-14T20:12:43.621Z,102207.20
2017-11-14T20:14:45.197Z,102208.92
2017-11-14T20:16:46.857Z,102210.65
2017-11-14T20:18:48.690Z,102216.61
2017-11-14T20:20:50.352Z,102211.93
2017-11-14T20:22:51.825Z,102215.37
2017-11-14T20:24:53.363Z,102211.50
2017-11-14T20:26:55.024Z,102212.78
2017-11-14T20:28:56.680Z,102219.66
2017-11-14T20:30:58.234Z,102219.23
2017-11-14T20:32:59.886Z,102212.45
2017-11-14T20:35:01.766Z,102218.38
2017-11-14T20:37:03.402Z,102217.56
2017-11-14T20:39:05.345Z,102215.75
2017-11-14T20:41:06.903Z,102218.80
2017-11-14T20:43:08.371Z,102223.52
2017-11-14T20:45:10.025Z,102220.91
2017-11-14T20:47:11.776Z,102221.33
2017-11-14T20:49:13.411Z,102223.95
2017-11-14T20:51:14.966Z,102222.23
2017-11-14T20:53:16.602Z,102230.77
2017-11-14T20:55:18.279Z,102223.09
2017-11-14T20:57:19.776Z,102222.23
2017-11-14T20:59:21.199Z,102221.00
2017-11-14T21:01:22.839Z,102221.46
2017-11-14T21:03:24.482Z,102213.69
2017-11-14T21:05:26.145Z,102214.50
2017-11-14T21:07:28.639Z,102217.98
2017-11-14T21:09:30.285Z,102216.70
2017-11-14T21:11:31.967Z,102221.42
2017-11-14T21:13:33.572Z,102217.90
2017-11-14T21:15:35.178Z,102218.75
2017-11-14T21:17:36.769Z,102219.18
2017-11-14T21:19:38.317Z,102211.84
2017-11-14T21:21:39.901Z,102217.38
2017-11-14T21:23:41.348Z,102216.05
2017-11-14T21:25:42.766Z,102215.66
2017-11-14T21:27:44.350Z,102218.28
2017-11-14T21:29:46.015Z,102218.24
2017-11-14T21:31:47.672Z,102216.95
2017-11-14T21:33:49.200Z,102217.38
2017-11-14T21:35:51.078Z,102219.91
2017-11-14T21:37:52.827Z,102227.64
2017-11-14T21:39:54.576Z,102220.77
2017-11-14T21:41:56.146Z,102219.09
2017-11-14T21:43:57.674Z,102218.62
2017-11-14T21:45:59.038Z,102212.65
2017-11-14T21:48:00.632Z,102218.62
2017-11-14T21:50:02.118Z,102216.95
2017-11-14T21:52:03.392Z,102225.06
2017-11-14T21:54:05.241Z,102220.34
2017-11-14T21:56:06.905Z,102220.37
2017-11-14T21:58:08.442Z,102217.38
2017-11-14T22:00:10.008Z,102215.66
2017-11-14T22:02:11.758Z,102221.66
2017-11-14T22:04:13.297Z,102221.62
2017-11-14T22:06:14.758Z,102222.91
2017-11-14T22:08:16.417Z,102219.05
2017-11-14T22:10:17.872Z,102220.67
2017-11-14T22:12:19.511Z,102222.82
2017-11-14T22:14:21.171Z,102228.39
2017-11-14T22:16:23.564Z,102224.55
2017-11-14T22:18:25.110Z,102222.86
2017-11-14T22:20:26.729Z,102229.73
2017-11-14T22:22:28.405Z,102223.63
2017-11-14T22:24:30.071Z,102233.03
2017-11-14T22:26:31.734Z,102231.31
2017-11-14T22:28:33.373Z,102233.46
2017-11-14T22:30:35.037Z,102233.42
2017-11-14T22:32:36.665Z,102231.75
2017-11-14T22:34:38.103Z,102233.94
2017-11-14T22:36:39.670Z,102235.18
2017-11-14T22:38:41.221Z,102233.93
2017-11-14T22:40:43.603Z,102236.52
2017-11-14T22:42:45.046Z,102240.29
2017-11-14T22:44:46.610Z,102239.04
2017-11-14T22:46:47.948Z,102240.33
2017-11-14T22:48:49.338Z,102246.34
2017-11-14T22:50:50.751Z,102241.15
2017-11-14T22:52:52.427Z,102241.23
2017-11-14T22:54:53.964Z,102238.75
2017-11-14T22:56:55.395Z,102237.37
2017-11-14T22:58:56.859Z,102237.41
2017-11-14T23:00:58.506Z,102234.93
2017-11-14T23:02:59.943Z,102234.02
2017-11-14T23:05:01.296Z,102244.67
2017-11-14T23:07:03.163Z,102254.50
2017-11-14T23:09:04.709Z,102246.00
2017-11-14T23:11:07.074Z,102253.26
2017-11-14T23:13:11.826Z,102246.34
2017-11-14T23:15:13.471Z,102255.40
2017-11-14T23:17:14.924Z,102253.30
2017-11-14T23:19:16.661Z,102248.97
2017-11-14T23:21:18.232Z,102255.83
2017-11-14T23:23:19.879Z,102255.83
2017-11-14T23:25:21.313Z,102247.72
2017-11-14T23:27:22.890Z,102249.48
2017-11-14T23:29:24.437Z,102249.48
2017-11-14T23:31:26.095Z,102249.86
2017-11-14T23:33:27.658Z,102254.16
2017-11-14T23:35:29.406Z,102253.77
2017-11-14T23:37:30.860Z,102256.73
2017-11-14T23:39:32.515Z,102256.34
2017-11-14T23:41:34.103Z,102250.37
2017-11-14T23:43:35.730Z,102252.88
2017-11-14T23:45:37.261Z,102247.34
2017-11-14T23:47:38.625Z,102246.05
2017-11-14T23:49:40.873Z,102243.91
2017-11-14T23:51:42.226Z,102253.78
2017-11-14T23:53:43.987Z,102238.70
2017-11-14T23:55:45.552Z,102249.91
2017-11-14T23:57:47.185Z,102239.61
2017-11-14T23:59:48.644Z,102248.62
